Brusque, Brazil
Current Conditions -  °F | °C
As of 11:00 AM on Saturday 25 Oct 2014 (Local Time) from SBNF Reporting Station
Scattered Clouds Scattered Clouds  
Wind Chill: 79°   Ceiling: Unl
Heat Index: 81°   Visibility: 6mi
Dew Point: 64°   Wind: 10mph
Humidity: 61%   Direction: 60°ENE
Pressure: 29.97"   Gusts: NA
Location:  27.13°S, 48.93°W
Report Text: SBNF 251300Z 06009KT 9999 FEW025 SCT035 26/18 Q1015
Loading
Personal Weather Stations






























Interactive Weather Map
Tropical Storm Tracking
New forecast layout! Learn more

10-Day Weather Forecast

Advertisements
Track Severe Weather on mobile